CRL772 FMEE-FMCZ
Flight info
| Callsign | CRL772 |
|---|---|
| Flight time | N/A |
| Altitude | 40000 |
| Route | DOBUT2N DOBUT UB790 SOAVI |
| Aircraft | A339/H-SADE1E2E3GHIJ1J3J5M1P2RWXY/LB2D1 |
Departure
| Time | 2026-04-14 23:10 |
|---|---|
| Airport | Roland Garros Airport (FMEE) |
Arrival
| Time | N/A |
|---|---|
| Airport | Dzaoudzi Pamandzi International Airport (FMCZ) |
| Time | Latitude | Longitude | Altitude | Speed | Heading |
|---|---|---|---|---|---|
| 2026-04-14 23:00 | -20.89057 | 55.51167 | 118 ft | 0 kts | 205° |
| 2026-04-14 23:01 | -20.89050 | 55.51170 | 109 ft | 2 kts | 205° |
| 2026-04-14 23:01 | -20.89036 | 55.51178 | 107 ft | 2 kts | 205° |
| 2026-04-14 23:01 | -20.89022 | 55.51185 | 107 ft | 2 kts | 205° |
| 2026-04-14 23:01 | -20.89008 | 55.51191 | 107 ft | 2 kts | 205° |
| 2026-04-14 23:02 | -20.88996 | 55.51201 | 107 ft | 2 kts | 233° |
| 2026-04-14 23:02 | -20.88989 | 55.51215 | 107 ft | 2 kts | 258° |
| 2026-04-14 23:02 | -20.88988 | 55.51231 | 107 ft | 2 kts | 284° |
| 2026-04-14 23:02 | -20.88991 | 55.51240 | 107 ft | 0 kts | 297° |
| 2026-04-14 23:03 | -20.88993 | 55.51244 | 107 ft | 0 kts | 297° |
| 2026-04-14 23:03 | -20.88993 | 55.51243 | 107 ft | 0 kts | 297° |
| 2026-04-14 23:04 | -20.88992 | 55.51242 | 107 ft | 1 kts | 297° |
| 2026-04-14 23:05 | -20.88985 | 55.51228 | 107 ft | 3 kts | 297° |
| 2026-04-14 23:05 | -20.88968 | 55.51202 | 107 ft | 5 kts | 315° |
| 2026-04-14 23:05 | -20.88933 | 55.51174 | 107 ft | 6 kts | 335° |
| 2026-04-14 23:05 | -20.88883 | 55.51161 | 107 ft | 8 kts | 346° |
| 2026-04-14 23:06 | -20.88820 | 55.51144 | 107 ft | 10 kts | 345° |
| 2026-04-14 23:06 | -20.88754 | 55.51116 | 107 ft | 9 kts | 307° |
| 2026-04-14 23:06 | -20.88725 | 55.51055 | 107 ft | 9 kts | 301° |
| 2026-04-14 23:06 | -20.88692 | 55.50991 | 107 ft | 10 kts | 298° |
| 2026-04-14 23:07 | -20.88655 | 55.50916 | 107 ft | 11 kts | 295° |
| 2026-04-14 23:07 | -20.88657 | 55.50869 | 107 ft | 7 kts | 254° |
| 2026-04-14 23:07 | -20.88669 | 55.50809 | 107 ft | 8 kts | 270° |
| 2026-04-14 23:07 | -20.88656 | 55.50739 | 107 ft | 11 kts | 283° |
| 2026-04-14 23:08 | -20.88637 | 55.50650 | 107 ft | 12 kts | 282° |
| 2026-04-14 23:08 | -20.88608 | 55.50558 | 108 ft | 13 kts | 303° |
| 2026-04-14 23:08 | -20.88584 | 55.50493 | 108 ft | 6 kts | 240° |
| 2026-04-14 23:08 | -20.88602 | 55.50492 | 108 ft | 1 kts | 113° |
| 2026-04-14 23:09 | -20.88605 | 55.50503 | 108 ft | 2 kts | 104° |
| 2026-04-14 23:09 | -20.88612 | 55.50532 | 108 ft | 5 kts | 104° |
| 2026-04-14 23:09 | -20.88628 | 55.50599 | 108 ft | 27 kts | 104° |
| 2026-04-14 23:09 | -20.88728 | 55.51086 | 107 ft | 104 kts | 102° |
| 2026-04-14 23:10 | -20.88933 | 55.52082 | 108 ft | 166 kts | 102° |
| 2026-04-14 23:10 | -20.89185 | 55.53341 | 872 ft | 163 kts | 103° |
| 2026-04-14 23:10 | -20.89062 | 55.54440 | 1614 ft | 161 kts | 53° |
| 2026-04-14 23:10 | -20.88100 | 55.55100 | 2076 ft | 176 kts | 12° |
| 2026-04-14 23:11 | -20.86824 | 55.55272 | 2475 ft | 193 kts | 6° |
| 2026-04-14 23:11 | -20.85421 | 55.55386 | 2872 ft | 211 kts | 5° |
| 2026-04-14 23:11 | -20.83894 | 55.55496 | 3298 ft | 229 kts | 2° |
| 2026-04-14 23:11 | -20.82231 | 55.55411 | 3743 ft | 248 kts | 352° |
| 2026-04-14 23:12 | -20.80525 | 55.54865 | 4159 ft | 267 kts | 326° |
| 2026-04-14 23:12 | -20.79208 | 55.53413 | 4803 ft | 276 kts | 306° |
| 2026-04-14 23:12 | -20.78076 | 55.51766 | 5625 ft | 278 kts | 305° |
| 2026-04-14 23:12 | -20.76939 | 55.50072 | 6436 ft | 280 kts | 305° |
| 2026-04-14 23:13 | -20.75800 | 55.48373 | 7196 ft | 283 kts | 305° |
| 2026-04-14 23:13 | -20.74663 | 55.46681 | 7977 ft | 284 kts | 305° |
| 2026-04-14 23:13 | -20.73503 | 55.44960 | 8733 ft | 285 kts | 306° |
| 2026-04-14 23:13 | -20.72350 | 55.43254 | 9471 ft | 287 kts | 306° |
| 2026-04-14 23:14 | -20.71176 | 55.41522 | 10203 ft | 289 kts | 305° |
| 2026-04-14 23:14 | -20.69983 | 55.39762 | 10657 ft | 301 kts | 305° |
| 2026-04-14 23:14 | -20.68705 | 55.37878 | 10959 ft | 319 kts | 305° |
| 2026-04-14 23:14 | -20.67384 | 55.35930 | 11369 ft | 332 kts | 305° |
| 2026-04-14 23:15 | -20.66026 | 55.33929 | 12007 ft | 336 kts | 305° |
| 2026-04-14 23:15 | -20.64638 | 55.31887 | 12703 ft | 338 kts | 305° |
| 2026-04-14 23:15 | -20.63256 | 55.29853 | 13346 ft | 342 kts | 305° |
| 2026-04-14 23:15 | -20.61852 | 55.27786 | 13987 ft | 345 kts | 304° |
| 2026-04-14 23:16 | -20.60450 | 55.25721 | 14623 ft | 347 kts | 304° |
| 2026-04-14 23:16 | -20.59015 | 55.23608 | 15252 ft | 350 kts | 304° |
| 2026-04-14 23:16 | -20.57593 | 55.21517 | 15866 ft | 353 kts | 304° |
| 2026-04-14 23:16 | -20.56145 | 55.19389 | 16466 ft | 356 kts | 304° |
| 2026-04-14 23:17 | -20.54684 | 55.17242 | 17057 ft | 358 kts | 304° |
| 2026-04-14 23:17 | -20.53230 | 55.15107 | 17641 ft | 361 kts | 304° |
| 2026-04-14 23:17 | -20.51743 | 55.12923 | 18228 ft | 364 kts | 304° |
| 2026-04-14 23:18 | -20.48743 | 55.08521 | 19345 ft | 371 kts | 304° |
| 2026-04-14 23:18 | -20.47223 | 55.06291 | 19887 ft | 375 kts | 304° |
| 2026-04-14 23:18 | -20.45680 | 55.04027 | 20431 ft | 378 kts | 304° |
| 2026-04-14 23:18 | -20.44134 | 55.01761 | 20955 ft | 382 kts | 304° |
| 2026-04-14 23:19 | -20.42570 | 54.99469 | 21464 ft | 385 kts | 304° |
| 2026-04-14 23:19 | -20.40985 | 54.97149 | 21981 ft | 389 kts | 304° |
| 2026-04-14 23:19 | -20.39378 | 54.94796 | 22481 ft | 392 kts | 304° |
| 2026-04-14 23:19 | -20.37764 | 54.92436 | 22977 ft | 396 kts | 304° |
| 2026-04-14 23:20 | -20.36140 | 54.90060 | 23484 ft | 398 kts | 304° |
| 2026-04-14 23:20 | -20.34500 | 54.87662 | 23999 ft | 401 kts | 304° |
| 2026-04-14 23:20 | -20.32856 | 54.85259 | 24510 ft | 403 kts | 304° |
| 2026-04-14 23:20 | -20.31222 | 54.82871 | 25001 ft | 406 kts | 304° |
| 2026-04-14 23:21 | -20.29552 | 54.80434 | 25492 ft | 408 kts | 304° |
| 2026-04-14 23:21 | -20.27859 | 54.77963 | 25981 ft | 411 kts | 304° |
| 2026-04-14 23:21 | -20.26161 | 54.75487 | 26450 ft | 413 kts | 304° |
| 2026-04-14 23:21 | -20.24477 | 54.73031 | 26908 ft | 416 kts | 304° |
| 2026-04-14 23:22 | -20.22763 | 54.70533 | 27362 ft | 418 kts | 304° |
| 2026-04-14 23:22 | -20.21038 | 54.68021 | 27805 ft | 421 kts | 304° |
| 2026-04-14 23:22 | -20.19300 | 54.65490 | 28249 ft | 423 kts | 304° |
| 2026-04-14 23:22 | -20.17576 | 54.62981 | 28679 ft | 425 kts | 304° |
| 2026-04-14 23:23 | -20.15827 | 54.60434 | 29090 ft | 428 kts | 304° |
| 2026-04-14 23:23 | -20.14075 | 54.57885 | 29503 ft | 430 kts | 304° |
| 2026-04-14 23:23 | -20.12303 | 54.55310 | 29913 ft | 431 kts | 304° |
| 2026-04-14 23:23 | -20.10514 | 54.52710 | 30311 ft | 433 kts | 304° |
| 2026-04-14 23:24 | -20.08727 | 54.50113 | 30682 ft | 436 kts | 304° |
| 2026-04-14 23:24 | -20.06942 | 54.47522 | 31052 ft | 438 kts | 304° |
| 2026-04-14 23:24 | -20.05131 | 54.44894 | 31426 ft | 439 kts | 304° |
| 2026-04-14 23:24 | -20.03340 | 54.42297 | 31780 ft | 441 kts | 304° |
| 2026-04-14 23:25 | -20.01510 | 54.39644 | 32121 ft | 443 kts | 304° |
| 2026-04-14 23:25 | -19.99687 | 54.37003 | 32460 ft | 445 kts | 304° |
| 2026-04-14 23:25 | -19.97852 | 54.34344 | 32791 ft | 447 kts | 304° |
| 2026-04-14 23:25 | -19.96008 | 54.31674 | 33118 ft | 448 kts | 304° |
| 2026-04-14 23:26 | -19.94168 | 54.29010 | 33559 ft | 448 kts | 304° |
| 2026-04-14 23:26 | -19.92342 | 54.26368 | 34082 ft | 446 kts | 304° |
| 2026-04-14 23:26 | -19.90497 | 54.23701 | 34603 ft | 444 kts | 304° |
| 2026-04-14 23:26 | -19.88679 | 54.21072 | 35096 ft | 442 kts | 304° |
| 2026-04-14 23:27 | -19.86881 | 54.18476 | 35565 ft | 440 kts | 304° |
| 2026-04-14 23:27 | -19.85075 | 54.15867 | 36003 ft | 438 kts | 304° |
| 2026-04-14 23:27 | -19.83262 | 54.13250 | 36421 ft | 437 kts | 304° |
| 2026-04-14 23:27 | -19.81455 | 54.10642 | 36792 ft | 436 kts | 304° |
| 2026-04-14 23:28 | -19.79663 | 54.08057 | 37137 ft | 436 kts | 304° |
| 2026-04-14 23:28 | -19.77875 | 54.05479 | 37475 ft | 435 kts | 304° |
| 2026-04-14 23:28 | -19.76092 | 54.02910 | 37829 ft | 434 kts | 304° |
| 2026-04-14 23:28 | -19.74293 | 54.00319 | 38156 ft | 434 kts | 304° |
| 2026-04-14 23:29 | -19.72503 | 53.97742 | 38442 ft | 433 kts | 304° |
| 2026-04-14 23:29 | -19.70703 | 53.95150 | 38668 ft | 434 kts | 304° |
| 2026-04-14 23:29 | -19.68910 | 53.92571 | 38865 ft | 436 kts | 304° |
| 2026-04-14 23:29 | -19.67121 | 53.89997 | 39057 ft | 437 kts | 304° |
| 2026-04-14 23:30 | -19.65299 | 53.87378 | 39256 ft | 438 kts | 304° |
| 2026-04-14 23:30 | -19.63489 | 53.84779 | 39445 ft | 440 kts | 304° |
| 2026-04-14 23:30 | -19.61673 | 53.82169 | 39653 ft | 440 kts | 304° |
| 2026-04-14 23:30 | -19.59859 | 53.79565 | 39885 ft | 440 kts | 304° |
| 2026-04-14 23:31 | -19.58054 | 53.76975 | 40007 ft | 441 kts | 304° |
| 2026-04-14 23:31 | -19.56217 | 53.74340 | 40004 ft | 441 kts | 304° |
| 2026-04-14 23:31 | -19.52573 | 53.69116 | 40009 ft | 441 kts | 304° |
| 2026-04-14 23:32 | -19.48920 | 53.63886 | 40006 ft | 442 kts | 304° |
| 2026-04-14 23:32 | -19.45274 | 53.58670 | 40008 ft | 441 kts | 304° |
| 2026-04-14 23:33 | -19.41607 | 53.53429 | 40008 ft | 442 kts | 304° |